Time;durP1;ratioP1;P1;durP2;ratioP2;P2;SDS_P1;SDS_P2;PMS_P1;PMS_P2;Temp;Humidity;BMP_temperature;BMP_pressure;BME280_temperature;BME280_humidity;BME280_pressure;Samples;Min_cycle;Max_cycle;Signal;HPM_P1;HPM_P2
2021/12/11 00:00:38;;;;;;;16.17;7.18;;;4.00;95.80;;;;;;5042359;28;20025;-79
2021/12/11 00:03:12;;;;;;;34.85;13.43;;;4.00;95.80;;;;;;5043794;28;20033;-79
2021/12/11 00:05:39;;;;;;;33.60;12.68;;;4.00;95.80;;;;;;5041563;28;20013;-79
2021/12/11 00:08:10;;;;;;;10.38;5.32;;;4.00;95.50;;;;;;5042870;28;20116;-80
2021/12/11 00:10:42;;;;;;;7.95;3.42;;;4.00;95.50;;;;;;5031527;28;20021;-79
2021/12/11 00:13:20;;;;;;;3.63;1.95;;;4.10;95.10;;;;;;5028057;28;20029;-79
2021/12/11 00:15:47;;;;;;;10.02;3.47;;;4.10;94.70;;;;;;5040217;28;20112;-80
2021/12/11 00:18:22;;;;;;;9.00;4.15;;;4.20;94.80;;;;;;5040285;28;20054;-80
2021/12/11 00:21:05;;;;;;;13.50;6.15;;;4.20;94.60;;;;;;5041907;28;20088;-79
2021/12/11 00:23:49;;;;;;;6.50;2.90;;;4.20;94.60;;;;;;5044005;28;20021;-78
2021/12/11 00:26:27;;;;;;;23.05;8.98;;;4.30;94.40;;;;;;5043201;28;20029;-79
2021/12/11 00:28:53;;;;;;;13.27;4.97;;;4.40;94.50;;;;;;5049546;28;20028;-79
2021/12/11 00:31:19;;;;;;;5.88;3.03;;;4.30;94.50;;;;;;5056247;28;20104;-78
2021/12/11 00:33:47;;;;;;;11.93;4.03;;;4.20;94.60;;;;;;5058342;28;20075;-79
2021/12/11 00:36:19;;;;;;;5.55;2.63;;;4.20;94.60;;;;;;5059530;28;20029;-80
2021/12/11 00:38:49;;;;;;;7.30;3.30;;;4.20;94.60;;;;;;5038174;28;20084;-80
2021/12/11 00:41:18;;;;;;;9.48;3.47;;;4.30;94.60;;;;;;5047211;28;20021;-81
2021/12/11 00:43:46;;;;;;;4.90;2.95;;;4.30;94.60;;;;;;5049213;28;20107;-79
2021/12/11 00:46:16;;;;;;;2.30;1.67;;;4.20;94.70;;;;;;5051861;28;20025;-79
2021/12/11 00:48:43;;;;;;;7.97;2.47;;;4.20;94.50;;;;;;5027926;28;20025;-79
2021/12/11 00:51:18;;;;;;;3.83;2.75;;;4.30;94.70;;;;;;5043261;28;20102;-79
2021/12/11 00:53:54;;;;;;;3.33;1.90;;;4.30;94.90;;;;;;5041666;28;20021;-79
2021/12/11 00:56:29;;;;;;;3.25;1.80;;;4.20;95.00;;;;;;5023516;28;20032;-79
2021/12/11 00:58:59;;;;;;;4.30;2.40;;;4.10;94.60;;;;;;5041125;28;20017;-79
2021/12/11 01:01:29;;;;;;;6.05;2.85;;;4.20;94.50;;;;;;5041391;28;20546;-79
2021/12/11 01:04:18;;;;;;;4.85;2.85;;;4.20;95.00;;;;;;5040737;28;20029;-79
2021/12/11 01:07:01;;;;;;;8.10;2.97;;;4.70;95.20;;;;;;5023224;28;20031;-79
2021/12/11 01:09:37;;;;;;;9.32;2.67;;;4.20;95.20;;;;;;5041041;28;20021;-79
2021/12/11 01:12:37;;;;;;;12.65;4.88;;;4.10;95.10;;;;;;5040622;28;20029;-79
2021/12/11 01:15:10;;;;;;;16.05;6.93;;;4.10;95.20;;;;;;5040774;28;20020;-79
2021/12/11 01:17:57;;;;;;;7.53;2.95;;;4.10;95.20;;;;;;5040753;28;20079;-79
2021/12/11 01:20:35;;;;;;;4.80;2.38;;;4.20;95.10;;;;;;5040922;28;20213;-79
2021/12/11 01:23:14;;;;;;;3.88;2.10;;;4.20;95.00;;;;;;5022796;28;20091;-79
2021/12/11 01:25:39;;;;;;;2.95;1.83;;;4.20;95.00;;;;;;5040462;28;20017;-79
2021/12/11 01:28:05;;;;;;;15.57;5.50;;;2.30;94.60;;;;;;5040883;28;20028;-79
2021/12/11 01:30:36;;;;;;;5.10;2.38;;;4.10;95.20;;;;;;5040721;28;20020;-79
2021/12/11 01:33:06;;;;;;;13.55;4.80;;;4.10;95.20;;;;;;5040286;28;20035;-79
2021/12/11 01:35:32;;;;;;;6.75;2.75;;;4.10;95.20;;;;;;5044945;28;20025;-79
2021/12/11 01:38:23;;;;;;;7.28;3.58;;;4.10;95.30;;;;;;5040140;28;20028;-79
2021/12/11 01:40:53;;;;;;;4.18;2.08;;;4.10;95.20;;;;;;4942662;28;20042;-79
2021/12/11 01:43:23;;;;;;;15.35;6.78;;;4.10;95.20;;;;;;4959030;28;20055;-79
2021/12/11 01:45:51;;;;;;;30.85;10.80;;;4.20;95.30;;;;;;4959712;28;20038;-79
2021/12/11 01:48:21;;;;;;;7.65;3.72;;;4.20;95.10;;;;;;4959250;28;20564;-79
2021/12/11 01:51:09;;;;;;;4.28;2.22;;;4.20;95.10;;;;;;4959271;28;20700;-79
2021/12/11 01:53:42;;;;;;;10.23;4.38;;;4.20;95.10;;;;;;4958141;28;20035;-79
2021/12/11 01:56:17;;;;;;;5.35;2.45;;;4.20;95.20;;;;;;4958602;28;20974;-79
2021/12/11 01:58:55;;;;;;;12.07;5.38;;;4.30;95.10;;;;;;4958656;28;20713;-79
2021/12/11 02:01:31;;;;;;;10.13;4.28;;;4.30;95.30;;;;;;4942561;28;20019;-79
2021/12/11 02:03:58;;;;;;;;;;;4.30;95.00;;;;;;4959186;28;20027;-79
2021/12/11 02:06:30;;;;;;;9.75;4.78;;;4.30;94.90;;;;;;4958871;28;19914;-79
2021/12/11 02:08:56;;;;;;;4.20;2.08;;;4.30;94.80;;;;;;4958345;28;20457;-79
2021/12/11 02:11:25;;;;;;;1.70;1.38;;;4.30;94.40;;;;;;4958580;28;20771;-79
2021/12/11 02:13:57;;;;;;;6.22;3.38;;;4.40;94.30;;;;;;4958898;28;20039;-79
2021/12/11 02:16:28;;;;;;;6.10;3.30;;;4.40;94.50;;;;;;4958545;28;20031;-79
2021/12/11 02:18:59;;;;;;;6.95;3.42;;;4.40;94.50;;;;;;5034728;28;20033;-79
2021/12/11 02:21:26;;;;;;;26.27;10.40;;;4.40;94.60;;;;;;5040378;28;20115;-79
2021/12/11 02:23:58;;;;;;;18.30;6.05;;;4.50;94.60;;;;;;5040062;28;20021;-79
2021/12/11 02:26:26;;;;;;;8.75;3.45;;;4.50;94.40;;;;;;5022185;28;20067;-79
2021/12/11 02:29:10;;;;;;;25.20;8.25;;;4.50;94.20;;;;;;5040173;28;20029;-80
2021/12/11 02:31:42;;;;;;;14.20;5.53;;;4.50;94.30;;;;;;5040047;28;20044;-79
2021/12/11 02:34:43;;;;;;;14.68;5.90;;;4.50;94.10;;;;;;5040137;28;20060;-79
2021/12/11 02:37:20;;;;;;;45.60;20.83;;;4.50;93.90;;;;;;4977355;28;20125;-79
2021/12/11 02:40:03;;;;;;;10.30;4.15;;;4.10;93.40;;;;;;4977355;28;20042;-79
2021/12/11 02:42:34;;;;;;;3.33;1.95;;;4.60;93.50;;;;;;4977699;28;20877;-79
2021/12/11 02:45:34;;;;;;;2.80;1.50;;;4.60;92.90;;;;;;4977226;28;20516;-79
2021/12/11 02:48:17;;;;;;;3.25;1.20;;;4.60;93.10;;;;;;4977724;28;20092;-79
2021/12/11 02:51:17;;;;;;;2.20;1.20;;;4.60;92.80;;;;;;4977977;28;20030;-80
2021/12/11 02:54:07;;;;;;;3.72;1.95;;;4.50;92.60;;;;;;4881890;29;20032;-79
2021/12/11 02:56:42;;;;;;;5.22;0.95;;;4.60;93.00;;;;;;4870973;29;20788;-79
2021/12/11 02:59:16;;;;;;;2.45;1.00;;;4.70;92.60;;;;;;4866869;29;20295;-79
2021/12/11 03:01:56;;;;;;;2.13;0.98;;;4.70;92.90;;;;;;4882488;29;20566;-79
2021/12/11 03:04:34;;;;;;;2.10;0.95;;;4.60;92.90;;;;;;4882041;29;20036;-79
2021/12/11 03:07:03;;;;;;;2.13;1.20;;;4.60;93.30;;;;;;4882610;29;20043;-79
2021/12/11 03:09:31;;;;;;;4.07;1.30;;;4.70;93.40;;;;;;4882008;29;20028;-80
2021/12/11 03:12:01;;;;;;;2.70;1.10;;;4.80;93.80;;;;;;4881704;29;20731;-80
2021/12/11 03:14:28;;;;;;;2.25;0.90;;;4.60;93.30;;;;;;4916556;29;20403;-79
2021/12/11 03:16:55;;;;;;;1.30;1.00;;;4.60;93.50;;;;;;4939378;29;20031;-79
2021/12/11 03:19:25;;;;;;;3.08;1.73;;;4.60;93.60;;;;;;4939278;29;20031;-79
2021/12/11 03:21:53;;;;;;;2.70;1.10;;;4.60;93.80;;;;;;4922866;29;20615;-79
2021/12/11 03:24:19;;;;;;;1.58;0.88;;;4.60;93.70;;;;;;4939274;29;20039;-79
2021/12/11 03:26:47;;;;;;;2.35;1.42;;;4.60;93.80;;;;;;4940254;29;20116;-79
2021/12/11 03:29:14;;;;;;;2.50;1.80;;;4.60;94.10;;;;;;4923923;29;20653;-79
2021/12/11 03:31:43;;;;;;;2.63;1.98;;;4.60;93.90;;;;;;5036117;28;20037;-80
2021/12/11 03:34:16;;;;;;;3.22;1.40;;;4.60;94.50;;;;;;5048759;28;20100;-80
2021/12/11 03:36:42;;;;;;;2.47;1.48;;;4.50;94.60;;;;;;5042355;28;20115;-80
2021/12/11 03:39:14;;;;;;;1.88;1.00;;;4.40;95.10;;;;;;5046704;28;20721;-79
2021/12/11 03:41:43;;;;;;;2.42;1.00;;;4.40;95.30;;;;;;5040614;28;20029;-79
2021/12/11 03:44:11;;;;;;;1.10;0.90;;;4.40;95.80;;;;;;5020868;28;20044;-79
2021/12/11 03:46:37;;;;;;;3.30;1.00;;;4.30;96.20;;;;;;5038884;28;20029;-79
2021/12/11 03:49:11;;;;;;;3.05;1.10;;;4.30;96.50;;;;;;5039632;28;20714;-79
2021/12/11 03:51:39;;;;;;;2.25;0.80;;;4.10;96.90;;;;;;5040726;28;20020;-78
2021/12/11 03:54:09;;;;;;;1.45;1.00;;;4.10;97.10;;;;;;5041718;28;20017;-79
2021/12/11 03:56:37;;;;;;;1.85;1.02;;;4.00;97.50;;;;;;5041632;28;20017;-79
2021/12/11 03:59:09;;;;;;;1.67;1.15;;;4.00;97.90;;;;;;5042809;28;20096;-78
2021/12/11 04:01:40;;;;;;;3.95;1.73;;;3.90;98.00;;;;;;5042250;28;20025;-79
2021/12/11 04:04:29;;;;;;;1.48;1.05;;;3.80;98.50;;;;;;5043477;28;20028;-79
2021/12/11 04:06:57;;;;;;;0.70;0.70;;;3.70;98.60;;;;;;5043794;28;20033;-78
2021/12/11 04:09:25;;;;;;;1.75;1.10;;;3.70;99.00;;;;;;5044067;28;20112;-78
2021/12/11 04:11:52;;;;;;;1.50;0.90;;;3.60;99.10;;;;;;5044257;28;20263;-78
2021/12/11 04:14:22;;;;;;;2.35;1.15;;;3.60;99.30;;;;;;5046495;28;20029;-78
2021/12/11 04:16:49;;;;;;;2.55;1.17;;;3.60;99.60;;;;;;5044225;28;20063;-78
2021/12/11 04:19:16;;;;;;;4.50;1.30;;;3.50;99.70;;;;;;5044564;28;20100;-79
2021/12/11 04:21:44;;;;;;;0.80;0.80;;;3.40;99.90;;;;;;5025561;28;20028;-78
2021/12/11 04:24:12;;;;;;;2.72;1.00;;;3.40;99.90;;;;;;5040775;28;20036;-79
2021/12/11 04:26:38;;;;;;;2.05;1.10;;;3.40;99.90;;;;;;5040815;28;20044;-79
2021/12/11 04:29:05;;;;;;;2.08;1.20;;;3.40;99.90;;;;;;5041697;28;20021;-79
2021/12/11 04:31:33;;;;;;;1.50;0.90;;;3.40;99.90;;;;;;5040704;28;20104;-78
2021/12/11 04:34:02;;;;;;;5.93;2.42;;;3.40;99.90;;;;;;5037754;28;20707;-79
2021/12/11 04:36:34;;;;;;;1.58;1.10;;;3.40;99.90;;;;;;5020848;28;20682;-78
2021/12/11 04:39:02;;;;;;;2.50;1.00;;;3.40;99.90;;;;;;5037853;28;20176;-79
2021/12/11 04:41:39;;;;;;;1.08;0.85;;;3.50;99.90;;;;;;5041130;28;20040;-79
2021/12/11 04:44:13;;;;;;;1.42;1.05;;;3.50;99.90;;;;;;5020574;28;20131;-79
2021/12/11 04:46:38;;;;;;;0.80;0.80;;;3.60;99.90;;;;;;5037489;28;20010;-79
2021/12/11 04:49:24;;;;;;;4.50;1.10;;;3.60;99.90;;;;;;5037140;28;20043;-78
2021/12/11 04:52:01;;;;;;;1.50;1.02;;;3.60;99.90;;;;;;5037557;28;20072;-79
2021/12/11 04:55:03;;;;;;;1.75;1.15;;;3.50;99.90;;;;;;5037702;28;20018;-79
2021/12/11 04:57:51;;;;;;;2.67;1.05;;;3.50;99.90;;;;;;5037449;28;20021;-79
2021/12/11 05:00:34;;;;;;;1.63;1.10;;;3.60;99.90;;;;;;5037109;28;20033;-79
2021/12/11 05:10:55;;;;;;;2.13;1.27;;;3.70;99.90;;;;;;5042324;28;20021;-79
2021/12/11 05:13:23;;;;;;;1.20;1.00;;;3.70;99.90;;;;;;5043502;28;20029;-79
2021/12/11 05:15:54;;;;;;;2.25;1.27;;;4.80;99.90;;;;;;5043768;28;20021;-79
2021/12/11 05:18:24;;;;;;;2.72;1.50;;;3.80;99.90;;;;;;5043148;28;20553;-79
2021/12/11 05:20:55;;;;;;;2.13;1.33;;;3.70;99.90;;;;;;5044012;28;20028;-79
2021/12/11 05:23:22;;;;;;;2.05;1.67;;;3.80;99.90;;;;;;5044161;28;20672;-79
2021/12/11 05:25:48;;;;;;;2.22;1.55;;;3.90;99.90;;;;;;5043460;28;20039;-79
2021/12/11 05:28:14;;;;;;;2.42;1.55;;;3.80;99.90;;;;;;5025137;28;20158;-78
2021/12/11 05:30:45;;;;;;;3.65;1.42;;;3.90;99.90;;;;;;5042759;28;20024;-78
2021/12/11 05:33:12;;;;;;;2.53;1.65;;;3.90;99.90;;;;;;5041252;28;20036;-79
2021/12/11 05:35:40;;;;;;;2.45;1.88;;;3.90;99.90;;;;;;5042813;28;20664;-79
2021/12/11 05:38:12;;;;;;;15.77;8.45;;;4.00;99.80;;;;;;5043273;28;20044;-79
2021/12/11 05:40:41;;;;;;;5.30;2.70;;;4.00;99.80;;;;;;5043222;28;20025;-79
2021/12/11 05:43:07;;;;;;;3.33;2.10;;;4.00;99.40;;;;;;5045390;28;20060;-79
2021/12/11 05:45:35;;;;;;;3.22;1.55;;;3.90;99.40;;;;;;5045005;28;20013;-79
2021/12/11 05:48:02;;;;;;;2.00;1.67;;;3.90;99.40;;;;;;5027754;28;20435;-79
2021/12/11 05:50:32;;;;;;;2.10;1.60;;;4.00;99.60;;;;;;5027032;28;20040;-78
2021/12/11 05:52:58;;;;;;;2.95;1.30;;;3.90;99.40;;;;;;5045077;28;20017;-79
2021/12/11 05:55:28;;;;;;;2.30;1.40;;;3.90;99.40;;;;;;5046059;28;20032;-78
2021/12/11 05:57:57;;;;;;;2.75;1.55;;;3.90;99.60;;;;;;5045213;28;20017;-79
2021/12/11 06:00:31;;;;;;;1.42;1.20;;;3.90;99.80;;;;;;5048726;28;20063;-79
2021/12/11 06:02:58;;;;;;;11.88;5.80;;;3.90;99.70;;;;;;5051268;28;20056;-79
2021/12/11 06:05:23;;;;;;;16.40;7.93;;;3.80;99.90;;;;;;5051292;28;20021;-78
2021/12/11 06:07:49;;;;;;;15.27;8.88;;;3.70;99.90;;;;;;5051825;28;20104;-79
2021/12/11 06:10:18;;;;;;;30.02;14.02;;;3.70;99.90;;;;;;5051659;28;20032;-78
2021/12/11 06:12:47;;;;;;;29.98;15.32;;;3.50;99.90;;;;;;5052131;28;20029;-79
2021/12/11 06:15:13;;;;;;;30.98;15.43;;;3.40;99.90;;;;;;5033464;28;20024;-79
2021/12/11 06:17:42;;;;;;;31.48;15.65;;;3.20;99.90;;;;;;5043135;28;20018;-78
2021/12/11 06:20:12;;;;;;;27.20;13.93;;;3.20;99.90;;;;;;5042803;28;20155;-79
2021/12/11 06:22:38;;;;;;;26.30;13.20;;;3.10;99.90;;;;;;5024202;28;20040;-78
2021/12/11 06:25:09;;;;;;;23.48;11.70;;;3.10;99.90;;;;;;5041800;28;20255;-79
2021/12/11 06:27:36;;;;;;;47.22;21.55;;;3.10;99.90;;;;;;5041353;28;20100;-78
2021/12/11 06:30:04;;;;;;;23.63;12.43;;;3.10;99.90;;;;;;5023510;28;20648;-78
2021/12/11 06:32:29;;;;;;;20.35;11.38;;;3.10;99.90;;;;;;5042744;28;20124;-78
2021/12/11 06:34:57;;;;;;;26.80;14.50;;;3.10;99.90;;;;;;5048307;28;20096;-78
2021/12/11 06:37:23;;;;;;;33.53;17.13;;;3.10;99.90;;;;;;5046315;28;20047;-80
2021/12/11 06:39:51;;;;;;;41.75;21.90;;;3.00;99.90;;;;;;5049196;28;20045;-77
2021/12/11 06:42:19;;;;;;;25.15;14.73;;;3.00;99.90;;;;;;5047188;28;20033;-78
2021/12/11 06:44:47;;;;;;;28.85;15.93;;;3.00;99.90;;;;;;5040592;28;20020;-78
2021/12/11 06:47:14;;;;;;;29.48;16.55;;;2.80;99.90;;;;;;5040085;28;20109;-78
2021/12/11 06:49:41;;;;;;;35.55;17.17;;;2.70;99.90;;;;;;5040333;28;20028;-78
2021/12/11 06:52:13;;;;;;;31.02;16.38;;;2.70;99.90;;;;;;5039572;28;20025;-78
2021/12/11 06:54:39;;;;;;;36.13;18.92;;;2.70;99.90;;;;;;5039524;28;20021;-78
2021/12/11 06:57:06;;;;;;;38.35;21.13;;;2.60;99.90;;;;;;5039578;28;20716;-78
2021/12/11 06:59:32;;;;;;;24.27;14.25;;;2.60;99.90;;;;;;5039374;28;20024;-78
2021/12/11 07:01:58;;;;;;;26.75;15.77;;;2.60;99.90;;;;;;5038967;28;20029;-78
2021/12/11 07:04:23;;;;;;;24.73;14.50;;;2.60;99.90;;;;;;5039369;28;20609;-78
2021/12/11 07:06:52;;;;;;;23.77;14.43;;;2.60;99.90;;;;;;5039021;28;20462;-78
2021/12/11 07:09:23;;;;;;;23.60;13.63;;;2.50;99.90;;;;;;5038911;28;20025;-78
2021/12/11 07:11:52;;;;;;;25.17;14.57;;;2.60;99.90;;;;;;5038497;28;20047;-79
2021/12/11 07:14:19;;;;;;;22.85;13.18;;;2.50;99.90;;;;;;5021024;28;20086;-78
2021/12/11 07:16:47;;;;;;;27.70;14.77;;;2.60;99.90;;;;;;5039041;28;20056;-78
2021/12/11 07:19:14;;;;;;;21.52;11.70;;;2.60;99.90;;;;;;5039068;28;20021;-78
2021/12/11 07:21:40;;;;;;;24.65;13.50;;;2.70;99.90;;;;;;5038810;28;20653;-78
2021/12/11 07:24:10;;;;;;;27.83;15.85;;;2.70;99.90;;;;;;5038375;28;20010;-78
2021/12/11 07:26:36;;;;;;;30.23;16.98;;;2.70;99.90;;;;;;5038712;28;20020;-79
2021/12/11 07:29:08;;;;;;;28.35;17.10;;;2.70;99.90;;;;;;5038329;28;20021;-78
2021/12/11 07:31:35;;;;;;;26.50;14.95;;;2.80;99.90;;;;;;5038221;28;20100;-79
2021/12/11 07:34:01;;;;;;;30.40;17.80;;;2.70;99.90;;;;;;5038668;28;20021;-78
2021/12/11 07:36:29;;;;;;;30.42;18.13;;;4.70;99.90;;;;;;5037863;28;20013;-78
2021/12/11 07:38:56;;;;;;;32.22;18.67;;;2.60;99.90;;;;;;5037606;28;20124;-78
2021/12/11 07:41:23;;;;;;;33.70;19.23;;;2.70;99.90;;;;;;5037960;28;20722;-78
2021/12/11 07:43:49;;;;;;;30.73;18.60;;;2.60;99.90;;;;;;5020310;28;20419;-78
2021/12/11 07:46:19;;;;;;;33.38;19.08;;;2.50;99.90;;;;;;5038649;28;20016;-78
2021/12/11 07:48:46;;;;;;;32.15;18.55;;;2.50;99.90;;;;;;5038222;28;20750;-78
2021/12/11 07:51:13;;;;;;;30.98;16.90;;;2.50;99.90;;;;;;5037855;28;20114;-78
2021/12/11 07:53:38;;;;;;;35.08;20.52;;;2.50;99.90;;;;;;5037774;28;20025;-78
2021/12/11 07:56:05;;;;;;;28.50;17.05;;;3.00;99.90;;;;;;5038128;28;20545;-78
2021/12/11 07:58:33;;;;;;;26.88;16.83;;;2.40;99.90;;;;;;5037689;28;20191;-78
2021/12/11 08:01:02;;;;;;;27.98;16.27;;;2.40;99.90;;;;;;5037376;28;20052;-78
2021/12/11 08:03:28;;;;;;;30.45;17.80;;;2.70;99.90;;;;;;5037658;28;20039;-78
2021/12/11 08:05:56;;;;;;;26.75;16.33;;;2.50;99.90;;;;;;5002849;28;20025;-79
2021/12/11 08:08:22;;;;;;;40.67;22.05;;;2.50;99.90;;;;;;5037662;28;20029;-79
2021/12/11 08:10:52;;;;;;;41.45;23.83;;;2.50;99.90;;;;;;5037033;28;20232;-79
2021/12/11 08:13:18;;;;;;;37.13;22.65;;;2.60;99.90;;;;;;5037331;28;20257;-78
2021/12/11 08:15:45;;;;;;;45.53;25.77;;;2.60;99.90;;;;;;5037721;28;20530;-79
2021/12/11 08:18:14;;;;;;;41.72;23.20;;;2.60;99.90;;;;;;5039005;28;20036;-79
2021/12/11 08:20:42;;;;;;;36.35;20.98;;;2.50;99.90;;;;;;5039155;28;20017;-79
2021/12/11 08:23:09;;;;;;;42.80;23.88;;;2.50;99.90;;;;;;5038790;28;20044;-79
2021/12/11 08:25:37;;;;;;;35.88;20.02;;;2.60;99.90;;;;;;5038610;28;20009;-79
2021/12/11 08:28:04;;;;;;;35.10;19.95;;;2.60;99.90;;;;;;5039399;28;20025;-80
2021/12/11 08:30:33;;;;;;;40.97;22.58;;;2.60;99.90;;;;;;5039617;28;20631;-79
2021/12/11 08:32:59;;;;;;;40.25;22.42;;;2.70;99.90;;;;;;5039731;28;20088;-79
2021/12/11 08:35:26;;;;;;;37.58;20.02;;;2.80;99.90;;;;;;5021431;28;20279;-79
2021/12/11 08:37:53;;;;;;;33.92;17.73;;;2.30;99.90;;;;;;5039345;28;20060;-80
2021/12/11 08:40:23;;;;;;;34.70;18.95;;;2.80;99.90;;;;;;5039548;28;20061;-80
2021/12/11 08:42:50;;;;;;;41.10;20.63;;;2.80;99.90;;;;;;5023247;28;20079;-79
2021/12/11 08:45:23;;;;;;;43.53;22.52;;;2.80;99.90;;;;;;5043140;28;20025;-79
2021/12/11 08:47:53;;;;;;;44.25;24.27;;;2.80;99.90;;;;;;5042321;28;20021;-79
2021/12/11 08:50:24;;;;;;;43.33;24.70;;;2.80;99.90;;;;;;5042741;28;20020;-79
2021/12/11 08:52:53;;;;;;;49.78;27.05;;;2.90;99.90;;;;;;5043276;28;20094;-80
2021/12/11 08:55:25;;;;;;;36.97;21.90;;;2.90;99.90;;;;;;5042048;28;20398;-79
2021/12/11 08:57:51;;;;;;;43.67;25.23;;;2.70;99.90;;;;;;5042403;28;20079;-79
2021/12/11 09:00:42;;;;;;;37.22;21.95;;;2.80;99.90;;;;;;5025282;28;20120;-79
2021/12/11 09:03:35;;;;;;;38.65;22.13;;;2.80;99.90;;;;;;5043689;28;20037;-79
2021/12/11 09:06:19;;;;;;;60.97;35.53;;;2.80;99.90;;;;;;5013050;28;20056;-80
2021/12/11 09:08:51;;;;;;;44.00;25.58;;;2.80;99.90;;;;;;5043813;28;20017;-80
2021/12/11 09:11:29;;;;;;;53.80;27.65;;;2.90;99.90;;;;;;5024655;28;20013;-80
2021/12/11 09:14:02;;;;;;;50.70;29.48;;;3.00;99.90;;;;;;5044620;28;20159;-81
2021/12/11 09:16:40;;;;;;;64.85;32.72;;;3.00;99.90;;;;;;5044858;28;20031;-81
2021/12/11 09:19:09;;;;;;;58.38;32.20;;;3.10;99.90;;;;;;5028005;28;20013;-81
2021/12/11 09:21:42;;;;;;;60.58;33.15;;;3.20;99.90;;;;;;5046460;28;20028;-82
2021/12/11 09:24:13;;;;;;;67.57;35.45;;;3.20;99.90;;;;;;5044843;28;20753;-81
2021/12/11 09:26:53;;;;;;;63.10;34.17;;;3.20;99.90;;;;;;5043507;28;20078;-80
2021/12/11 09:29:39;;;;;;;64.75;34.20;;;3.20;99.90;;;;;;5023772;28;20025;-80
2021/12/11 09:32:25;;;;;;;69.30;35.97;;;3.20;99.90;;;;;;5042800;28;20076;-81
2021/12/11 09:35:07;;;;;;;38.42;19.13;;;3.30;99.90;;;;;;5059672;28;20021;-84
2021/12/11 09:37:34;;;;;;;47.13;27.23;;;6.20;99.90;;;;;;5045353;28;20052;-82
2021/12/11 09:40:15;;;;;;;56.30;30.05;;;8.20;94.90;;;;;;5028992;28;20116;-81
2021/12/11 09:42:40;;;;;;;49.75;27.95;;;7.00;91.90;;;;;;5029966;28;20053;-81
2021/12/11 09:45:20;;;;;;;52.72;27.55;;;6.50;93.60;;;;;;5030840;28;20014;-82
2021/12/11 09:47:53;;;;;;;51.92;28.13;;;6.00;94.10;;;;;;5028859;28;20021;-81
2021/12/11 09:50:31;;;;;;;45.88;26.25;;;5.50;94.80;;;;;;5057731;28;20016;-82
2021/12/11 09:52:57;;;;;;;46.45;26.00;;;5.10;96.00;;;;;;5035021;28;20029;-81
2021/12/11 09:55:33;;;;;;;45.83;25.55;;;4.70;97.40;;;;;;5051688;28;20024;-82
2021/12/11 09:58:04;;;;;;;45.35;26.63;;;4.50;98.10;;;;;;5035040;28;20059;-82
2021/12/11 10:00:38;;;;;;;127.97;51.60;;;4.40;98.40;;;;;;5033454;28;20050;-81
2021/12/11 10:03:07;;;;;;;85.03;39.83;;;4.30;98.50;;;;;;5029261;28;20033;-80
2021/12/11 10:05:44;;;;;;;120.80;50.63;;;4.10;99.10;;;;;;5046849;28;20096;-81
2021/12/11 10:08:31;;;;;;;198.20;73.40;;;4.00;99.30;;;;;;5048958;28;20134;-81
2021/12/11 10:11:15;;;;;;;119.78;52.55;;;4.00;99.80;;;;;;5047582;28;20020;-81
2021/12/11 10:13:48;;;;;;;171.23;68.15;;;4.00;99.90;;;;;;5046270;28;20025;-81
2021/12/11 10:16:17;;;;;;;74.60;36.33;;;3.90;99.90;;;;;;5045725;28;20025;-81
2021/12/11 10:18:43;;;;;;;65.88;34.42;;;3.80;99.90;;;;;;5030484;28;20025;-81
2021/12/11 10:21:17;;;;;;;66.65;36.35;;;3.80;99.90;;;;;;5046792;28;20214;-81
2021/12/11 10:23:47;;;;;;;159.55;65.03;;;3.80;99.90;;;;;;5046601;28;20029;-80
2021/12/11 10:26:15;;;;;;;97.25;44.72;;;3.90;99.90;;;;;;5029104;28;20009;-81
2021/12/11 10:28:47;;;;;;;73.80;37.67;;;3.90;99.90;;;;;;5045672;28;20021;-80
2021/12/11 10:31:18;;;;;;;66.55;36.47;;;3.80;99.90;;;;;;5045270;28;20017;-82
2021/12/11 10:33:44;;;;;;;337.77;118.82;;;3.80;99.90;;;;;;5047349;28;20021;-81
2021/12/11 10:36:14;;;;;;;438.15;151.65;;;3.90;99.90;;;;;;5046703;28;20029;-81
2021/12/11 10:38:40;;;;;;;263.15;97.05;;;3.90;99.90;;;;;;5045208;28;20053;-81
2021/12/11 10:41:10;;;;;;;109.80;50.47;;;4.00;99.90;;;;;;5048531;28;20107;-81
2021/12/11 10:44:08;;;;;;;65.20;34.13;;;3.90;99.90;;;;;;5047251;28;20040;-82
2021/12/11 10:46:40;;;;;;;68.82;35.55;;;4.00;99.90;;;;;;5043282;28;20241;-80
2021/12/11 10:49:08;;;;;;;64.82;34.35;;;4.00;99.90;;;;;;5046690;28;20096;-81
2021/12/11 10:51:41;;;;;;;70.90;37.17;;;3.90;99.90;;;;;;5029740;28;20580;-81
2021/12/11 10:54:08;;;;;;;72.78;36.13;;;3.70;99.90;;;;;;5041837;28;20056;-80
2021/12/11 10:56:34;;;;;;;73.90;36.55;;;3.70;99.90;;;;;;5048064;28;20151;-80
2021/12/11 10:59:08;;;;;;;63.38;34.55;;;3.70;99.90;;;;;;5043089;28;20021;-81
2021/12/11 11:01:38;;;;;;;56.30;31.67;;;3.90;99.90;;;;;;5044572;28;20624;-81
2021/12/11 11:04:13;;;;;;;62.33;32.85;;;4.10;99.90;;;;;;5042865;28;20403;-82
2021/12/11 11:06:40;;;;;;;63.75;33.92;;;3.70;99.90;;;;;;5026090;28;20025;-81
2021/12/11 11:09:08;;;;;;;64.50;35.20;;;3.60;99.90;;;;;;5023338;28;20017;-80
2021/12/11 11:11:35;;;;;;;70.20;36.85;;;3.60;99.90;;;;;;5039812;28;20276;-79
2021/12/11 11:14:04;;;;;;;72.40;39.03;;;3.50;99.90;;;;;;5041828;28;20772;-80
2021/12/11 11:16:31;;;;;;;73.22;39.40;;;3.50;99.90;;;;;;5041439;28;20056;-79
2021/12/11 11:18:57;;;;;;;74.82;40.60;;;3.50;99.90;;;;;;5040889;28;20595;-79
2021/12/11 11:21:29;;;;;;;77.63;42.05;;;3.50;99.90;;;;;;5040300;28;20088;-79
2021/12/11 11:23:55;;;;;;;82.63;45.42;;;3.50;99.90;;;;;;5040663;28;20037;-79
2021/12/11 11:26:34;;;;;;;92.85;47.75;;;3.50;99.90;;;;;;5040290;28;20013;-80
2021/12/11 11:29:04;;;;;;;91.72;47.65;;;3.60;99.90;;;;;;5041980;28;20017;-80
2021/12/11 11:31:34;;;;;;;76.68;42.20;;;4.70;99.90;;;;;;5041565;28;20407;-79
2021/12/11 11:34:02;;;;;;;84.93;42.10;;;3.60;99.90;;;;;;5022263;28;20044;-80
2021/12/11 11:36:30;;;;;;;78.25;39.08;;;3.60;99.90;;;;;;5041069;28;20021;-79
2021/12/11 11:38:58;;;;;;;69.07;34.53;;;3.60;99.90;;;;;;5040717;28;20660;-79
2021/12/11 11:41:34;;;;;;;56.92;30.17;;;3.60;99.90;;;;;;5040377;28;20036;-80
2021/12/11 11:44:03;;;;;;;54.03;29.75;;;3.50;99.90;;;;;;5039566;28;20060;-79
2021/12/11 11:46:29;;;;;;;56.65;29.27;;;3.50;99.90;;;;;;5040535;28;20617;-80
2021/12/11 11:48:58;;;;;;;58.88;30.42;;;3.50;99.90;;;;;;5040322;28;20057;-80
2021/12/11 11:51:36;;;;;;;59.75;32.63;;;3.50;99.90;;;;;;5040924;28;20017;-80
2021/12/11 11:54:03;;;;;;;56.50;29.42;;;3.20;99.90;;;;;;5040535;28;20045;-80
2021/12/11 11:56:34;;;;;;;50.35;27.75;;;3.50;99.90;;;;;;5040993;28;20222;-79
2021/12/11 11:59:04;;;;;;;58.78;30.45;;;3.50;99.90;;;;;;5040622;28;20067;-80
2021/12/11 12:01:40;;;;;;;54.25;26.80;;;3.50;99.90;;;;;;5040710;28;20028;-79
2021/12/11 12:04:11;;;;;;;54.42;28.20;;;3.40;99.90;;;;;;5041017;28;20052;-80
2021/12/11 12:06:39;;;;;;;44.22;25.02;;;3.50;99.90;;;;;;5040719;28;20056;-80
2021/12/11 12:09:08;;;;;;;52.17;26.50;;;3.30;99.90;;;;;;5041531;28;20214;-80
2021/12/11 12:11:36;;;;;;;50.33;25.67;;;3.30;99.90;;;;;;5039571;28;20036;-80
2021/12/11 12:14:07;;;;;;;51.08;27.17;;;3.30;99.90;;;;;;5040777;28;20729;-79
2021/12/11 12:16:40;;;;;;;54.55;26.88;;;4.70;99.90;;;;;;5039805;28;20021;-80
2021/12/11 12:19:06;;;;;;;55.03;28.98;;;3.30;99.90;;;;;;5040191;28;20083;-79
2021/12/11 12:21:35;;;;;;;51.13;27.42;;;3.40;99.90;;;;;;5039380;28;20016;-80
2021/12/11 12:24:01;;;;;;;44.80;24.90;;;3.40;99.90;;;;;;5039583;28;20025;-80
2021/12/11 12:26:30;;;;;;;37.60;21.77;;;3.40;99.90;;;;;;5039700;28;20123;-80
2021/12/11 12:28:57;;;;;;;43.80;23.55;;;3.40;99.90;;;;;;5039054;28;20664;-80
2021/12/11 12:31:27;;;;;;;41.30;22.35;;;3.40;99.90;;;;;;5038365;28;20009;-79
2021/12/11 12:33:54;;;;;;;41.92;23.30;;;3.40;99.90;;;;;;5038881;28;20526;-80
2021/12/11 12:36:20;;;;;;;41.55;23.05;;;3.40;99.90;;;;;;5038817;28;20079;-79
2021/12/11 12:38:48;;;;;;;36.78;21.17;;;3.40;99.90;;;;;;5039564;28;20033;-79
2021/12/11 12:41:24;;;;;;;37.83;20.38;;;3.40;99.90;;;;;;5039449;28;20051;-79
2021/12/11 12:47:06;;;;;;;37.60;20.33;;;3.40;99.90;;;;;;5039454;28;20814;-80
2021/12/11 12:49:35;;;;;;;32.05;18.23;;;3.40;99.90;;;;;;4957912;28;20667;-79
2021/12/11 12:52:08;;;;;;;33.08;18.83;;;3.50;99.90;;;;;;4958235;28;20035;-80
2021/12/11 12:54:34;;;;;;;32.58;18.38;;;3.50;99.90;;;;;;4959988;28;20023;-80
2021/12/11 12:57:12;;;;;;;27.60;15.85;;;3.40;99.90;;;;;;4946504;28;20058;-79
2021/12/11 12:59:42;;;;;;;33.38;18.42;;;3.40;99.60;;;;;;4963288;28;20088;-80
2021/12/11 13:02:11;;;;;;;30.85;18.17;;;3.40;99.90;;;;;;4965555;28;20073;-79
2021/12/11 13:04:49;;;;;;;32.58;17.27;;;3.40;99.90;;;;;;4961774;28;20073;-79
2021/12/11 13:07:16;;;;;;;35.60;18.38;;;3.40;99.90;;;;;;4948129;28;20501;-79
2021/12/11 13:09:44;;;;;;;29.73;16.60;;;3.40;99.90;;;;;;4966986;28;20023;-79
2021/12/11 13:12:26;;;;;;;28.15;16.80;;;3.40;99.80;;;;;;4965235;28;20027;-80
2021/12/11 13:15:01;;;;;;;30.38;17.17;;;3.40;99.80;;;;;;4964778;28;20023;-81
2021/12/11 13:17:40;;;;;;;34.05;19.20;;;3.40;99.90;;;;;;4963434;28;20030;-81